sensor_id;sensor_type;location;lat;lon;timestamp;temperature;humidity
4635;DHT22;2330;48.158;11.816;2023-05-10T00:01:27;13.70;98.50
4635;DHT22;2330;48.158;11.816;2023-05-10T00:03:54;13.70;98.50
4635;DHT22;2330;48.158;11.816;2023-05-10T00:06:21;13.60;98.50
4635;DHT22;2330;48.158;11.816;2023-05-10T00:08:48;13.70;98.50
4635;DHT22;2330;48.158;11.816;2023-05-10T00:11:14;13.60;98.50
4635;DHT22;2330;48.158;11.816;2023-05-10T00:13:41;13.60;98.50
4635;DHT22;2330;48.158;11.816;2023-05-10T00:16:08;13.70;98.50
4635;DHT22;2330;48.158;11.816;2023-05-10T00:18:34;13.70;98.50
4635;DHT22;2330;48.158;11.816;2023-05-10T00:21:01;13.80;98.50
4635;DHT22;2330;48.158;11.816;2023-05-10T00:23:28;13.80;98.50
4635;DHT22;2330;48.158;11.816;2023-05-10T00:25:54;13.80;98.50
4635;DHT22;2330;48.158;11.816;2023-05-10T00:28:21;13.80;98.50
4635;DHT22;2330;48.158;11.816;2023-05-10T00:30:48;13.80;98.50
4635;DHT22;2330;48.158;11.816;2023-05-10T00:33:14;13.70;98.50
4635;DHT22;2330;48.158;11.816;2023-05-10T00:35:41;13.70;98.50
4635;DHT22;2330;48.158;11.816;2023-05-10T00:38:08;13.70;98.50
4635;DHT22;2330;48.158;11.816;2023-05-10T00:40:36;13.60;98.50
4635;DHT22;2330;48.158;11.816;2023-05-10T00:43:03;13.50;98.50
4635;DHT22;2330;48.158;11.816;2023-05-10T00:45:32;13.60;98.50
4635;DHT22;2330;48.158;11.816;2023-05-10T00:48:01;13.60;98.50
4635;DHT22;2330;48.158;11.816;2023-05-10T00:50:29;13.70;98.50
4635;DHT22;2330;48.158;11.816;2023-05-10T00:52:58;13.70;98.50
4635;DHT22;2330;48.158;11.816;2023-05-10T00:55:25;13.60;98.50
4635;DHT22;2330;48.158;11.816;2023-05-10T00:57:53;13.70;98.50
4635;DHT22;2330;48.158;11.816;2023-05-10T01:00:19;13.70;98.50
4635;DHT22;2330;48.158;11.816;2023-05-10T01:02:47;13.60;98.50
4635;DHT22;2330;48.158;11.816;2023-05-10T01:05:14;13.60;98.50
4635;DHT22;2330;48.158;11.816;2023-05-10T01:07:40;13.50;98.50
4635;DHT22;2330;48.158;11.816;2023-05-10T01:10:08;13.50;98.50
4635;DHT22;2330;48.158;11.816;2023-05-10T01:12:38;13.50;98.50
4635;DHT22;2330;48.158;11.816;2023-05-10T01:15:07;13.50;98.50
4635;DHT22;2330;48.158;11.816;2023-05-10T01:17:38;13.40;98.50
4635;DHT22;2330;48.158;11.816;2023-05-10T01:20:06;13.40;98.50
4635;DHT22;2330;48.158;11.816;2023-05-10T01:25:49;13.40;98.50
4635;DHT22;2330;48.158;11.816;2023-05-10T01:32:24;13.40;98.50
4635;DHT22;2330;48.158;11.816;2023-05-10T01:35:03;13.40;98.50
4635;DHT22;2330;48.158;11.816;2023-05-10T01:43:19;13.40;98.50
4635;DHT22;2330;48.158;11.816;2023-05-10T01:46:01;13.30;98.50
4635;DHT22;2330;48.158;11.816;2023-05-10T01:48:31;13.30;98.50
4635;DHT22;2330;48.158;11.816;2023-05-10T01:50:58;13.20;98.50
4635;DHT22;2330;48.158;11.816;2023-05-10T01:53:26;13.20;98.50
4635;DHT22;2330;48.158;11.816;2023-05-10T01:55:55;13.20;98.50
4635;DHT22;2330;48.158;11.816;2023-05-10T01:58:29;13.30;98.50
4635;DHT22;2330;48.158;11.816;2023-05-10T02:00:58;13.30;98.50
4635;DHT22;2330;48.158;11.816;2023-05-10T02:03:28;13.30;98.50
4635;DHT22;2330;48.158;11.816;2023-05-10T02:05:57;13.30;98.50
4635;DHT22;2330;48.158;11.816;2023-05-10T02:08:26;13.30;98.50
4635;DHT22;2330;48.158;11.816;2023-05-10T02:10:54;13.20;98.50
4635;DHT22;2330;48.158;11.816;2023-05-10T02:13:23;13.30;98.50
4635;DHT22;2330;48.158;11.816;2023-05-10T02:15:51;13.20;98.50
4635;DHT22;2330;48.158;11.816;2023-05-10T02:18:19;13.20;98.50
4635;DHT22;2330;48.158;11.816;2023-05-10T02:20:47;13.20;98.50
4635;DHT22;2330;48.158;11.816;2023-05-10T02:23:15;13.20;98.50
4635;DHT22;2330;48.158;11.816;2023-05-10T02:25:44;13.20;98.50
4635;DHT22;2330;48.158;11.816;2023-05-10T02:28:12;13.20;98.50
4635;DHT22;2330;48.158;11.816;2023-05-10T02:30:39;13.20;98.50
4635;DHT22;2330;48.158;11.816;2023-05-10T02:33:07;13.20;98.50
4635;DHT22;2330;48.158;11.816;2023-05-10T02:35:35;13.10;98.50
4635;DHT22;2330;48.158;11.816;2023-05-10T02:38:02;13.10;98.50
4635;DHT22;2330;48.158;11.816;2023-05-10T02:40:31;13.10;98.50
4635;DHT22;2330;48.158;11.816;2023-05-10T02:42:59;13.10;98.50
4635;DHT22;2330;48.158;11.816;2023-05-10T02:45:30;13.00;98.50
4635;DHT22;2330;48.158;11.816;2023-05-10T02:47:58;13.00;98.50
4635;DHT22;2330;48.158;11.816;2023-05-10T02:50:27;13.00;98.50
4635;DHT22;2330;48.158;11.816;2023-05-10T02:53:00;13.10;98.50
4635;DHT22;2330;48.158;11.816;2023-05-10T02:55:32;13.00;98.50
4635;DHT22;2330;48.158;11.816;2023-05-10T02:58:01;13.10;98.50
4635;DHT22;2330;48.158;11.816;2023-05-10T03:00:28;13.10;98.50
4635;DHT22;2330;48.158;11.816;2023-05-10T03:02:55;13.10;98.50
4635;DHT22;2330;48.158;11.816;2023-05-10T03:05:22;13.10;98.50
4635;DHT22;2330;48.158;11.816;2023-05-10T03:07:49;13.10;98.50
4635;DHT22;2330;48.158;11.816;2023-05-10T03:10:16;13.10;98.50
4635;DHT22;2330;48.158;11.816;2023-05-10T03:13:13;13.20;98.50
4635;DHT22;2330;48.158;11.816;2023-05-10T03:16:07;13.20;98.50
4635;DHT22;2330;48.158;11.816;2023-05-10T03:18:53;13.30;98.50
4635;DHT22;2330;48.158;11.816;2023-05-10T03:21:22;13.30;98.50
4635;DHT22;2330;48.158;11.816;2023-05-10T03:24:06;13.20;98.50
4635;DHT22;2330;48.158;11.816;2023-05-10T03:26:34;13.30;98.50
4635;DHT22;2330;48.158;11.816;2023-05-10T03:29:02;13.20;98.50
4635;DHT22;2330;48.158;11.816;2023-05-10T03:31:29;13.30;98.50
4635;DHT22;2330;48.158;11.816;2023-05-10T03:33:56;13.10;98.50
4635;DHT22;2330;48.158;11.816;2023-05-10T03:36:23;13.10;98.50
4635;DHT22;2330;48.158;11.816;2023-05-10T03:38:49;13.10;98.50
4635;DHT22;2330;48.158;11.816;2023-05-10T03:41:16;13.10;98.50
4635;DHT22;2330;48.158;11.816;2023-05-10T03:43:43;13.10;98.50
4635;DHT22;2330;48.158;11.816;2023-05-10T03:46:10;13.00;98.50
4635;DHT22;2330;48.158;11.816;2023-05-10T03:48:36;13.10;98.50
4635;DHT22;2330;48.158;11.816;2023-05-10T03:51:03;13.00;98.50
4635;DHT22;2330;48.158;11.816;2023-05-10T03:53:30;13.00;98.50
4635;DHT22;2330;48.158;11.816;2023-05-10T03:55:57;13.00;98.50
4635;DHT22;2330;48.158;11.816;2023-05-10T03:58:23;13.00;98.50
4635;DHT22;2330;48.158;11.816;2023-05-10T04:00:51;13.00;98.50
4635;DHT22;2330;48.158;11.816;2023-05-10T04:03:18;13.00;98.50
4635;DHT22;2330;48.158;11.816;2023-05-10T04:05:45;12.90;98.50
4635;DHT22;2330;48.158;11.816;2023-05-10T04:08:11;12.90;98.50
4635;DHT22;2330;48.158;11.816;2023-05-10T04:10:38;12.90;98.50
4635;DHT22;2330;48.158;11.816;2023-05-10T04:13:06;12.90;98.50
4635;DHT22;2330;48.158;11.816;2023-05-10T04:15:33;12.90;98.50
4635;DHT22;2330;48.158;11.816;2023-05-10T04:17:59;12.80;98.50
4635;DHT22;2330;48.158;11.816;2023-05-10T04:20:26;12.90;98.50
4635;DHT22;2330;48.158;11.816;2023-05-10T04:22:53;12.80;98.50
4635;DHT22;2330;48.158;11.816;2023-05-10T04:25:20;12.80;98.50
4635;DHT22;2330;48.158;11.816;2023-05-10T04:27:46;12.80;98.50
4635;DHT22;2330;48.158;11.816;2023-05-10T04:30:13;12.80;98.50
4635;DHT22;2330;48.158;11.816;2023-05-10T04:32:40;12.90;98.50
4635;DHT22;2330;48.158;11.816;2023-05-10T04:35:07;12.90;98.50
4635;DHT22;2330;48.158;11.816;2023-05-10T04:37:35;12.90;98.50
4635;DHT22;2330;48.158;11.816;2023-05-10T04:40:03;12.90;98.50
4635;DHT22;2330;48.158;11.816;2023-05-10T04:42:30;12.90;98.50
4635;DHT22;2330;48.158;11.816;2023-05-10T04:44:57;12.90;98.50
4635;DHT22;2330;48.158;11.816;2023-05-10T04:47:23;12.90;98.50
4635;DHT22;2330;48.158;11.816;2023-05-10T04:49:50;12.90;98.50
4635;DHT22;2330;48.158;11.816;2023-05-10T04:52:17;12.90;98.50
4635;DHT22;2330;48.158;11.816;2023-05-10T04:54:44;12.90;98.50
4635;DHT22;2330;48.158;11.816;2023-05-10T04:57:11;12.90;98.50
4635;DHT22;2330;48.158;11.816;2023-05-10T04:59:37;12.90;98.50
4635;DHT22;2330;48.158;11.816;2023-05-10T05:02:05;12.90;98.50
4635;DHT22;2330;48.158;11.816;2023-05-10T05:04:32;12.90;98.50
4635;DHT22;2330;48.158;11.816;2023-05-10T05:06:58;12.90;98.50
4635;DHT22;2330;48.158;11.816;2023-05-10T05:09:25;12.80;98.50
4635;DHT22;2330;48.158;11.816;2023-05-10T05:11:52;12.80;98.50
4635;DHT22;2330;48.158;11.816;2023-05-10T05:14:19;12.90;98.50
4635;DHT22;2330;48.158;11.816;2023-05-10T05:16:47;12.80;98.50
4635;DHT22;2330;48.158;11.816;2023-05-10T05:19:14;12.80;98.50
4635;DHT22;2330;48.158;11.816;2023-05-10T05:21:41;12.80;98.50
4635;DHT22;2330;48.158;11.816;2023-05-10T05:24:07;12.80;98.50
4635;DHT22;2330;48.158;11.816;2023-05-10T05:26:34;12.80;98.50
4635;DHT22;2330;48.158;11.816;2023-05-10T05:29:01;12.80;98.50
4635;DHT22;2330;48.158;11.816;2023-05-10T05:31:28;12.70;98.50
4635;DHT22;2330;48.158;11.816;2023-05-10T05:33:55;12.70;98.50
4635;DHT22;2330;48.158;11.816;2023-05-10T05:36:22;12.70;98.50
4635;DHT22;2330;48.158;11.816;2023-05-10T05:38:49;12.60;98.50
4635;DHT22;2330;48.158;11.816;2023-05-10T05:41:15;12.50;98.50
4635;DHT22;2330;48.158;11.816;2023-05-10T05:43:42;12.50;98.50
4635;DHT22;2330;48.158;11.816;2023-05-10T05:46:09;12.50;98.50
4635;DHT22;2330;48.158;11.816;2023-05-10T05:48:36;12.50;98.50
4635;DHT22;2330;48.158;11.816;2023-05-10T05:51:02;12.50;98.50
4635;DHT22;2330;48.158;11.816;2023-05-10T05:53:32;12.40;98.50
4635;DHT22;2330;48.158;11.816;2023-05-10T05:55:59;12.40;98.50
4635;DHT22;2330;48.158;11.816;2023-05-10T05:58:26;12.40;98.50
4635;DHT22;2330;48.158;11.816;2023-05-10T06:00:53;12.40;98.50
4635;DHT22;2330;48.158;11.816;2023-05-10T06:03:20;12.30;98.50
4635;DHT22;2330;48.158;11.816;2023-05-10T06:05:47;12.30;98.50
4635;DHT22;2330;48.158;11.816;2023-05-10T06:08:14;12.30;98.50
4635;DHT22;2330;48.158;11.816;2023-05-10T06:10:41;12.20;98.50
4635;DHT22;2330;48.158;11.816;2023-05-10T06:13:08;12.20;98.50
4635;DHT22;2330;48.158;11.816;2023-05-10T06:15:35;12.20;98.50
4635;DHT22;2330;48.158;11.816;2023-05-10T06:18:02;12.10;98.50
4635;DHT22;2330;48.158;11.816;2023-05-10T06:20:29;12.10;98.50
4635;DHT22;2330;48.158;11.816;2023-05-10T06:22:58;12.20;98.50
4635;DHT22;2330;48.158;11.816;2023-05-10T06:25:24;12.30;98.50
4635;DHT22;2330;48.158;11.816;2023-05-10T06:27:51;12.30;98.50
4635;DHT22;2330;48.158;11.816;2023-05-10T06:30:24;12.40;98.50
4635;DHT22;2330;48.158;11.816;2023-05-10T06:32:54;12.50;98.50
4635;DHT22;2330;48.158;11.816;2023-05-10T06:35:21;12.60;98.50
4635;DHT22;2330;48.158;11.816;2023-05-10T06:37:48;12.70;98.50
4635;DHT22;2330;48.158;11.816;2023-05-10T06:40:15;12.70;98.50
4635;DHT22;2330;48.158;11.816;2023-05-10T06:42:42;12.70;98.50
4635;DHT22;2330;48.158;11.816;2023-05-10T06:45:11;12.80;98.50
4635;DHT22;2330;48.158;11.816;2023-05-10T06:47:38;12.90;98.50
4635;DHT22;2330;48.158;11.816;2023-05-10T06:50:05;12.90;98.50
4635;DHT22;2330;48.158;11.816;2023-05-10T06:52:32;13.00;98.50
4635;DHT22;2330;48.158;11.816;2023-05-10T06:54:59;13.10;98.50
4635;DHT22;2330;48.158;11.816;2023-05-10T06:57:26;13.20;98.50
4635;DHT22;2330;48.158;11.816;2023-05-10T06:59:58;13.20;98.50
4635;DHT22;2330;48.158;11.816;2023-05-10T07:02:25;13.30;98.50
4635;DHT22;2330;48.158;11.816;2023-05-10T07:04:52;13.30;98.50
4635;DHT22;2330;48.158;11.816;2023-05-10T07:07:19;13.50;98.50
4635;DHT22;2330;48.158;11.816;2023-05-10T07:09:46;13.50;98.50
4635;DHT22;2330;48.158;11.816;2023-05-10T07:12:13;13.50;98.50
4635;DHT22;2330;48.158;11.816;2023-05-10T07:14:41;13.60;98.50
4635;DHT22;2330;48.158;11.816;2023-05-10T07:17:08;13.70;98.50
4635;DHT22;2330;48.158;11.816;2023-05-10T07:19:35;13.70;98.50
4635;DHT22;2330;48.158;11.816;2023-05-10T07:22:02;13.80;98.50
4635;DHT22;2330;48.158;11.816;2023-05-10T07:24:30;14.00;98.50
4635;DHT22;2330;48.158;11.816;2023-05-10T07:26:58;14.00;98.50
4635;DHT22;2330;48.158;11.816;2023-05-10T07:29:25;14.20;98.50
4635;DHT22;2330;48.158;11.816;2023-05-10T07:31:51;14.40;98.50
4635;DHT22;2330;48.158;11.816;2023-05-10T07:34:18;14.40;98.50
4635;DHT22;2330;48.158;11.816;2023-05-10T07:36:45;14.40;98.50
4635;DHT22;2330;48.158;11.816;2023-05-10T07:39:12;14.70;98.50
4635;DHT22;2330;48.158;11.816;2023-05-10T07:41:50;14.90;98.50
4635;DHT22;2330;48.158;11.816;2023-05-10T07:44:16;14.90;98.50
4635;DHT22;2330;48.158;11.816;2023-05-10T07:46:45;14.70;98.50
4635;DHT22;2330;48.158;11.816;2023-05-10T07:49:12;14.90;98.50
4635;DHT22;2330;48.158;11.816;2023-05-10T07:51:40;15.30;98.50
4635;DHT22;2330;48.158;11.816;2023-05-10T07:54:11;15.60;98.50
4635;DHT22;2330;48.158;11.816;2023-05-10T07:56:39;15.60;98.50
4635;DHT22;2330;48.158;11.816;2023-05-10T07:59:06;15.30;98.50
4635;DHT22;2330;48.158;11.816;2023-05-10T08:01:34;15.20;98.50
4635;DHT22;2330;48.158;11.816;2023-05-10T08:04:02;14.90;98.50
4635;DHT22;2330;48.158;11.816;2023-05-10T08:06:29;14.70;98.50
4635;DHT22;2330;48.158;11.816;2023-05-10T08:08:57;14.60;98.50
4635;DHT22;2330;48.158;11.816;2023-05-10T08:11:24;14.60;98.50
4635;DHT22;2330;48.158;11.816;2023-05-10T08:13:51;14.70;98.50
4635;DHT22;2330;48.158;11.816;2023-05-10T08:16:18;14.90;98.50
4635;DHT22;2330;48.158;11.816;2023-05-10T08:18:47;15.30;98.50
4635;DHT22;2330;48.158;11.816;2023-05-10T08:21:15;15.60;98.50
4635;DHT22;2330;48.158;11.816;2023-05-10T08:23:42;15.90;98.50
4635;DHT22;2330;48.158;11.816;2023-05-10T08:26:11;16.10;98.50
4635;DHT22;2330;48.158;11.816;2023-05-10T08:28:37;16.30;98.50
4635;DHT22;2330;48.158;11.816;2023-05-10T08:31:05;16.40;98.50
4635;DHT22;2330;48.158;11.816;2023-05-10T08:33:32;16.30;98.50
4635;DHT22;2330;48.158;11.816;2023-05-10T08:35:59;16.40;98.50
4635;DHT22;2330;48.158;11.816;2023-05-10T08:38:26;16.10;98.50
4635;DHT22;2330;48.158;11.816;2023-05-10T08:40:55;16.30;98.50
4635;DHT22;2330;48.158;11.816;2023-05-10T08:43:29;16.40;98.50
4635;DHT22;2330;48.158;11.816;2023-05-10T08:46:00;16.10;98.50
4635;DHT22;2330;48.158;11.816;2023-05-10T08:48:29;15.70;98.50
4635;DHT22;2330;48.158;11.816;2023-05-10T08:50:58;15.60;98.50
4635;DHT22;2330;48.158;11.816;2023-05-10T08:53:26;15.70;98.50
4635;DHT22;2330;48.158;11.816;2023-05-10T08:55:55;15.80;98.50
4635;DHT22;2330;48.158;11.816;2023-05-10T08:58:22;15.80;98.50
4635;DHT22;2330;48.158;11.816;2023-05-10T09:00:49;15.90;98.50
4635;DHT22;2330;48.158;11.816;2023-05-10T09:03:19;15.80;98.50
4635;DHT22;2330;48.158;11.816;2023-05-10T09:05:46;15.90;98.50
4635;DHT22;2330;48.158;11.816;2023-05-10T09:08:14;16.00;98.50
4635;DHT22;2330;48.158;11.816;2023-05-10T09:10:46;16.50;98.50
4635;DHT22;2330;48.158;11.816;2023-05-10T09:13:15;16.80;98.50
4635;DHT22;2330;48.158;11.816;2023-05-10T09:15:44;16.80;98.50
4635;DHT22;2330;48.158;11.816;2023-05-10T09:18:12;16.70;98.50
4635;DHT22;2330;48.158;11.816;2023-05-10T09:20:39;17.00;98.50
4635;DHT22;2330;48.158;11.816;2023-05-10T09:23:06;17.00;98.50
4635;DHT22;2330;48.158;11.816;2023-05-10T09:25:33;16.80;98.50
4635;DHT22;2330;48.158;11.816;2023-05-10T09:28:00;16.80;98.50
4635;DHT22;2330;48.158;11.816;2023-05-10T09:30:29;16.80;98.50
4635;DHT22;2330;48.158;11.816;2023-05-10T09:32:57;16.80;98.50
4635;DHT22;2330;48.158;11.816;2023-05-10T09:35:26;16.80;98.50
4635;DHT22;2330;48.158;11.816;2023-05-10T09:37:57;16.90;98.50
4635;DHT22;2330;48.158;11.816;2023-05-10T09:40:26;17.20;98.50
4635;DHT22;2330;48.158;11.816;2023-05-10T09:42:59;17.50;98.50
4635;DHT22;2330;48.158;11.816;2023-05-10T09:45:31;18.00;98.50
4635;DHT22;2330;48.158;11.816;2023-05-10T09:48:01;18.30;98.50
4635;DHT22;2330;48.158;11.816;2023-05-10T09:50:29;18.50;98.50
4635;DHT22;2330;48.158;11.816;2023-05-10T09:53:03;18.50;97.60
4635;DHT22;2330;48.158;11.816;2023-05-10T09:55:43;18.40;97.20
4635;DHT22;2330;48.158;11.816;2023-05-10T09:58:13;18.30;98.00
4635;DHT22;2330;48.158;11.816;2023-05-10T10:00:42;17.90;98.50
4635;DHT22;2330;48.158;11.816;2023-05-10T10:03:20;17.60;98.50
4635;DHT22;2330;48.158;11.816;2023-05-10T10:05:48;17.20;98.50
4635;DHT22;2330;48.158;11.816;2023-05-10T10:08:15;16.50;98.50
4635;DHT22;2330;48.158;11.816;2023-05-10T10:10:43;16.10;98.50
4635;DHT22;2330;48.158;11.816;2023-05-10T10:13:13;15.90;98.50
4635;DHT22;2330;48.158;11.816;2023-05-10T10:15:40;15.80;98.50
4635;DHT22;2330;48.158;11.816;2023-05-10T10:18:13;15.70;98.50
4635;DHT22;2330;48.158;11.816;2023-05-10T10:20:40;15.60;98.50
4635;DHT22;2330;48.158;11.816;2023-05-10T10:23:08;15.70;98.50
4635;DHT22;2330;48.158;11.816;2023-05-10T10:25:35;15.70;98.50
4635;DHT22;2330;48.158;11.816;2023-05-10T10:31:15;15.70;98.50
4635;DHT22;2330;48.158;11.816;2023-05-10T10:34:00;15.80;98.50
4635;DHT22;2330;48.158;11.816;2023-05-10T10:36:27;15.70;98.50
4635;DHT22;2330;48.158;11.816;2023-05-10T10:38:55;16.10;98.50
4635;DHT22;2330;48.158;11.816;2023-05-10T10:50:07;17.20;98.50
4635;DHT22;2330;48.158;11.816;2023-05-10T11:00:37;18.50;98.50
4635;DHT22;2330;48.158;11.816;2023-05-10T11:03:12;18.30;98.50
4635;DHT22;2330;48.158;11.816;2023-05-10T11:05:48;18.00;98.50
4635;DHT22;2330;48.158;11.816;2023-05-10T11:08:25;18.00;98.50
4635;DHT22;2330;48.158;11.816;2023-05-10T11:13:44;17.90;98.50
4635;DHT22;2330;48.158;11.816;2023-05-10T11:16:22;17.80;98.50
4635;DHT22;2330;48.158;11.816;2023-05-10T11:19:02;17.70;98.50
4635;DHT22;2330;48.158;11.816;2023-05-10T11:21:30;17.50;98.50
4635;DHT22;2330;48.158;11.816;2023-05-10T11:23:59;17.50;98.50
4635;DHT22;2330;48.158;11.816;2023-05-10T11:26:32;17.40;98.50
4635;DHT22;2330;48.158;11.816;2023-05-10T11:28:59;17.30;98.50
4635;DHT22;2330;48.158;11.816;2023-05-10T11:31:28;17.30;98.50
4635;DHT22;2330;48.158;11.816;2023-05-10T11:33:58;17.20;98.50
4635;DHT22;2330;48.158;11.816;2023-05-10T11:36:35;17.20;98.50
4635;DHT22;2330;48.158;11.816;2023-05-10T11:39:03;17.30;98.50
4635;DHT22;2330;48.158;11.816;2023-05-10T11:41:30;17.60;98.50
4635;DHT22;2330;48.158;11.816;2023-05-10T11:43:58;17.60;98.50
4635;DHT22;2330;48.158;11.816;2023-05-10T11:46:27;17.70;98.50
4635;DHT22;2330;48.158;11.816;2023-05-10T11:48:58;17.80;98.50
4635;DHT22;2330;48.158;11.816;2023-05-10T11:51:27;17.90;98.50
4635;DHT22;2330;48.158;11.816;2023-05-10T11:53:55;17.60;98.50
4635;DHT22;2330;48.158;11.816;2023-05-10T11:56:22;17.30;98.50
4635;DHT22;2330;48.158;11.816;2023-05-10T11:58:57;16.80;98.50
4635;DHT22;2330;48.158;11.816;2023-05-10T12:01:25;16.80;98.50
4635;DHT22;2330;48.158;11.816;2023-05-10T12:03:54;16.70;98.50
4635;DHT22;2330;48.158;11.816;2023-05-10T12:06:22;16.60;98.50
4635;DHT22;2330;48.158;11.816;2023-05-10T12:08:50;16.30;98.50
4635;DHT22;2330;48.158;11.816;2023-05-10T12:11:20;16.20;98.50
4635;DHT22;2330;48.158;11.816;2023-05-10T12:13:48;16.10;98.50
4635;DHT22;2330;48.158;11.816;2023-05-10T12:16:21;16.10;98.50
4635;DHT22;2330;48.158;11.816;2023-05-10T12:18:49;16.00;98.50
4635;DHT22;2330;48.158;11.816;2023-05-10T12:21:19;16.00;98.50
4635;DHT22;2330;48.158;11.816;2023-05-10T12:23:50;16.10;98.50
4635;DHT22;2330;48.158;11.816;2023-05-10T12:26:18;16.00;98.50
4635;DHT22;2330;48.158;11.816;2023-05-10T12:28:47;16.00;98.50
4635;DHT22;2330;48.158;11.816;2023-05-10T12:31:14;15.40;98.50
4635;DHT22;2330;48.158;11.816;2023-05-10T12:33:45;14.60;98.50
4635;DHT22;2330;48.158;11.816;2023-05-10T12:36:16;14.10;98.50
4635;DHT22;2330;48.158;11.816;2023-05-10T12:38:44;13.80;98.50
4635;DHT22;2330;48.158;11.816;2023-05-10T12:41:16;13.40;98.50
4635;DHT22;2330;48.158;11.816;2023-05-10T12:43:44;13.30;98.50
4635;DHT22;2330;48.158;11.816;2023-05-10T12:46:16;13.10;98.50
4635;DHT22;2330;48.158;11.816;2023-05-10T12:48:44;13.10;98.50
4635;DHT22;2330;48.158;11.816;2023-05-10T12:51:11;13.00;98.50
4635;DHT22;2330;48.158;11.816;2023-05-10T12:53:39;13.00;98.50
4635;DHT22;2330;48.158;11.816;2023-05-10T12:56:10;12.80;98.50
4635;DHT22;2330;48.158;11.816;2023-05-10T12:58:38;12.50;98.50
4635;DHT22;2330;48.158;11.816;2023-05-10T13:01:05;12.40;98.50
4635;DHT22;2330;48.158;11.816;2023-05-10T13:03:32;12.30;98.50
4635;DHT22;2330;48.158;11.816;2023-05-10T13:05:59;12.20;98.50
4635;DHT22;2330;48.158;11.816;2023-05-10T13:08:25;12.20;98.50
4635;DHT22;2330;48.158;11.816;2023-05-10T13:10:52;12.20;98.50
4635;DHT22;2330;48.158;11.816;2023-05-10T13:13:19;12.20;98.50
4635;DHT22;2330;48.158;11.816;2023-05-10T13:15:46;12.40;98.50
4635;DHT22;2330;48.158;11.816;2023-05-10T13:18:13;12.30;98.50
4635;DHT22;2330;48.158;11.816;2023-05-10T13:20:40;12.40;98.50
4635;DHT22;2330;48.158;11.816;2023-05-10T13:23:07;12.40;98.50
4635;DHT22;2330;48.158;11.816;2023-05-10T13:25:33;12.50;98.50
4635;DHT22;2330;48.158;11.816;2023-05-10T13:28:01;12.70;98.50
4635;DHT22;2330;48.158;11.816;2023-05-10T13:30:27;12.70;98.50
4635;DHT22;2330;48.158;11.816;2023-05-10T13:32:55;12.70;98.50
4635;DHT22;2330;48.158;11.816;2023-05-10T13:35:22;12.70;98.50
4635;DHT22;2330;48.158;11.816;2023-05-10T13:37:48;12.70;98.50
4635;DHT22;2330;48.158;11.816;2023-05-10T13:40:16;12.50;98.50
4635;DHT22;2330;48.158;11.816;2023-05-10T13:42:43;12.60;98.50
4635;DHT22;2330;48.158;11.816;2023-05-10T13:45:10;12.60;98.50
4635;DHT22;2330;48.158;11.816;2023-05-10T13:47:38;12.60;98.50
4635;DHT22;2330;48.158;11.816;2023-05-10T13:50:06;12.60;98.50
4635;DHT22;2330;48.158;11.816;2023-05-10T13:52:33;12.50;98.50
4635;DHT22;2330;48.158;11.816;2023-05-10T13:55:00;12.60;98.50
4635;DHT22;2330;48.158;11.816;2023-05-10T13:57:27;12.60;98.50
4635;DHT22;2330;48.158;11.816;2023-05-10T13:59:55;12.60;98.50
4635;DHT22;2330;48.158;11.816;2023-05-10T14:02:23;12.70;98.50
4635;DHT22;2330;48.158;11.816;2023-05-10T14:04:51;12.80;98.50
4635;DHT22;2330;48.158;11.816;2023-05-10T14:07:18;12.90;98.50
4635;DHT22;2330;48.158;11.816;2023-05-10T14:09:44;13.00;98.50
4635;DHT22;2330;48.158;11.816;2023-05-10T14:12:11;13.10;98.50
4635;DHT22;2330;48.158;11.816;2023-05-10T14:14:38;13.10;98.50
4635;DHT22;2330;48.158;11.816;2023-05-10T14:17:05;12.90;98.50
4635;DHT22;2330;48.158;11.816;2023-05-10T14:19:32;12.90;98.50
4635;DHT22;2330;48.158;11.816;2023-05-10T14:22:00;12.90;98.50
4635;DHT22;2330;48.158;11.816;2023-05-10T14:24:27;12.80;98.50
4635;DHT22;2330;48.158;11.816;2023-05-10T14:26:53;12.70;98.50
4635;DHT22;2330;48.158;11.816;2023-05-10T14:29:21;12.70;98.50
4635;DHT22;2330;48.158;11.816;2023-05-10T14:31:49;12.80;98.50
4635;DHT22;2330;48.158;11.816;2023-05-10T14:34:16;12.80;98.50
4635;DHT22;2330;48.158;11.816;2023-05-10T14:36:43;12.90;98.50
4635;DHT22;2330;48.158;11.816;2023-05-10T14:39:09;13.10;98.50
4635;DHT22;2330;48.158;11.816;2023-05-10T14:41:39;13.10;98.50
4635;DHT22;2330;48.158;11.816;2023-05-10T14:44:08;13.10;98.50
4635;DHT22;2330;48.158;11.816;2023-05-10T14:46:34;13.00;98.50
4635;DHT22;2330;48.158;11.816;2023-05-10T14:49:01;13.10;98.50
4635;DHT22;2330;48.158;11.816;2023-05-10T14:51:28;13.00;98.50
4635;DHT22;2330;48.158;11.816;2023-05-10T14:53:55;13.00;98.50
4635;DHT22;2330;48.158;11.816;2023-05-10T14:56:22;13.10;98.50
4635;DHT22;2330;48.158;11.816;2023-05-10T14:58:49;12.90;98.50
4635;DHT22;2330;48.158;11.816;2023-05-10T15:01:16;13.00;98.50
4635;DHT22;2330;48.158;11.816;2023-05-10T15:03:43;12.90;98.50
4635;DHT22;2330;48.158;11.816;2023-05-10T15:06:10;12.80;98.50
4635;DHT22;2330;48.158;11.816;2023-05-10T15:08:37;12.90;98.50
4635;DHT22;2330;48.158;11.816;2023-05-10T15:11:04;12.80;98.50
4635;DHT22;2330;48.158;11.816;2023-05-10T15:13:31;12.60;98.50
4635;DHT22;2330;48.158;11.816;2023-05-10T15:15:57;12.40;98.50
4635;DHT22;2330;48.158;11.816;2023-05-10T15:18:24;12.40;98.50
4635;DHT22;2330;48.158;11.816;2023-05-10T15:20:51;12.40;98.50
4635;DHT22;2330;48.158;11.816;2023-05-10T15:23:18;12.40;98.50
4635;DHT22;2330;48.158;11.816;2023-05-10T15:25:44;12.40;98.50
4635;DHT22;2330;48.158;11.816;2023-05-10T15:28:11;12.60;98.50
4635;DHT22;2330;48.158;11.816;2023-05-10T15:30:38;12.60;98.50
4635;DHT22;2330;48.158;11.816;2023-05-10T15:33:05;12.50;98.50
4635;DHT22;2330;48.158;11.816;2023-05-10T15:35:32;12.40;98.50
4635;DHT22;2330;48.158;11.816;2023-05-10T15:37:58;12.40;98.50
4635;DHT22;2330;48.158;11.816;2023-05-10T15:40:25;12.30;98.50
4635;DHT22;2330;48.158;11.816;2023-05-10T15:42:52;12.30;98.50
4635;DHT22;2330;48.158;11.816;2023-05-10T15:45:19;12.30;98.50
4635;DHT22;2330;48.158;11.816;2023-05-10T15:47:46;12.30;98.50
4635;DHT22;2330;48.158;11.816;2023-05-10T15:50:14;12.20;98.50
4635;DHT22;2330;48.158;11.816;2023-05-10T15:52:41;12.20;98.50
4635;DHT22;2330;48.158;11.816;2023-05-10T15:55:08;12.10;98.50
4635;DHT22;2330;48.158;11.816;2023-05-10T15:57:40;12.00;98.50
4635;DHT22;2330;48.158;11.816;2023-05-10T16:00:08;12.10;98.50
4635;DHT22;2330;48.158;11.816;2023-05-10T16:02:35;12.10;98.50
4635;DHT22;2330;48.158;11.816;2023-05-10T16:05:03;12.10;98.50
4635;DHT22;2330;48.158;11.816;2023-05-10T16:07:30;12.10;98.50
4635;DHT22;2330;48.158;11.816;2023-05-10T16:09:57;12.10;98.50
4635;DHT22;2330;48.158;11.816;2023-05-10T16:12:24;12.10;98.50
4635;DHT22;2330;48.158;11.816;2023-05-10T16:14:51;12.10;98.50
4635;DHT22;2330;48.158;11.816;2023-05-10T16:17:17;12.10;98.50
4635;DHT22;2330;48.158;11.816;2023-05-10T16:19:45;12.10;98.50
4635;DHT22;2330;48.158;11.816;2023-05-10T16:22:13;12.20;98.50
4635;DHT22;2330;48.158;11.816;2023-05-10T16:24:40;12.10;98.50
4635;DHT22;2330;48.158;11.816;2023-05-10T16:27:07;12.10;98.50